createdAt,value
2022-10-25T00:02:14.886Z,110.93
2022-10-25T00:07:11.154Z,109.63
2022-10-25T00:12:08.163Z,107.90
2022-10-25T00:17:04.391Z,108.22
2022-10-25T00:22:00.677Z,114.72
2022-10-25T00:26:56.918Z,114.40
2022-10-25T00:31:53.149Z,118.43
2022-10-25T00:36:49.476Z,122.75
2022-10-25T00:41:45.765Z,121.18
2022-10-25T00:46:42.517Z,117.70
2022-10-25T00:51:41.149Z,125.20
2022-10-25T00:56:39.024Z,131.25
2022-10-25T01:01:35.649Z,129.57
2022-10-25T01:06:37.035Z,127.03
2022-10-25T01:11:35.683Z,133.38
2022-10-25T01:16:31.863Z,128.48
2022-10-25T01:21:36.727Z,133.93
2022-10-25T01:26:45.247Z,133.23
2022-10-25T01:31:48.404Z,131.50
2022-10-25T01:36:53.750Z,122.63
2022-10-25T01:41:58.506Z,112.45
2022-10-25T01:47:00.151Z,123.10
2022-10-25T01:51:56.407Z,114.20
2022-10-25T01:57:00.160Z,104.13
2022-10-25T02:01:59.230Z,114.97
2022-10-25T02:07:15.757Z,116.13
2022-10-25T02:12:15.138Z,125.47
2022-10-25T02:17:19.472Z,122.18
2022-10-25T02:22:15.855Z,119.25
2022-10-25T02:27:13.370Z,124.43
2022-10-25T02:32:09.614Z,129.02
2022-10-25T02:37:05.995Z,132.45
2022-10-25T02:42:02.464Z,126.40
2022-10-25T02:46:58.763Z,123.38
2022-10-25T02:51:54.943Z,129.20
2022-10-25T02:56:52.402Z,125.82
2022-10-25T03:01:48.896Z,122.65
2022-10-25T03:06:45.228Z,117.38
2022-10-25T03:11:41.420Z,126.13
2022-10-25T03:16:37.709Z,123.70
2022-10-25T03:21:36.608Z,125.60
2022-10-25T03:26:35.271Z,128.00
2022-10-25T03:31:31.548Z,135.85
2022-10-25T03:36:27.765Z,126.38
2022-10-25T03:41:24.791Z,120.40
2022-10-25T03:46:21.073Z,118.93
2022-10-25T03:51:17.337Z,105.45
2022-10-25T03:56:13.687Z,108.03
2022-10-25T04:01:10.216Z,108.47
2022-10-25T04:06:06.902Z,102.50
2022-10-25T04:11:03.111Z,101.65
2022-10-25T04:15:59.364Z,99.70
2022-10-25T04:20:55.636Z,102.18
2022-10-25T04:25:56.340Z,90.10
2022-10-25T04:30:52.527Z,95.93
2022-10-25T04:35:56.329Z,93.40
2022-10-25T04:40:53.980Z,90.68
2022-10-25T04:45:50.218Z,94.25
2022-10-25T04:50:46.466Z,95.57
2022-10-25T04:55:43.073Z,92.07
2022-10-25T05:00:39.321Z,85.35
2022-10-25T05:05:35.512Z,90.95
2022-10-25T05:10:31.740Z,99.95
2022-10-25T05:15:28.346Z,98.38
2022-10-25T05:20:24.622Z,98.90
2022-10-25T05:25:21.009Z,89.78
2022-10-25T05:30:17.280Z,92.72
2022-10-25T05:35:13.468Z,106.18
2022-10-25T05:40:09.939Z,104.43
2022-10-25T05:45:06.289Z,106.22
2022-10-25T05:50:02.561Z,108.22
2022-10-25T05:54:58.856Z,100.30
2022-10-25T05:59:55.284Z,101.18
2022-10-25T06:04:52.482Z,103.00
2022-10-25T06:09:48.990Z,102.88
2022-10-25T06:14:45.173Z,98.50
2022-10-25T06:19:41.435Z,105.05
2022-10-25T06:24:37.664Z,102.55
2022-10-25T06:29:33.958Z,96.95
2022-10-25T06:34:30.148Z,97.82
2022-10-25T06:39:26.425Z,108.40
2022-10-25T06:44:22.609Z,113.35
2022-10-25T06:49:18.846Z,124.20
2022-10-25T06:54:15.073Z,132.35
2022-10-25T06:59:11.296Z,134.05
2022-10-25T07:04:07.479Z,138.68
2022-10-25T07:09:04.922Z,143.75
2022-10-25T07:14:01.619Z,136.70
2022-10-25T07:18:59.295Z,135.82
2022-10-25T07:23:55.490Z,142.07
2022-10-25T07:28:52.558Z,147.43
2022-10-25T07:33:49.124Z,145.50
2022-10-25T07:38:45.592Z,135.82
2022-10-25T07:43:41.877Z,142.38
2022-10-25T07:48:38.143Z,133.93
2022-10-25T07:53:34.418Z,137.80
2022-10-25T07:58:30.638Z,138.02
2022-10-25T08:03:26.870Z,130.23
2022-10-25T08:08:24.332Z,132.32
2022-10-25T08:13:20.643Z,142.95
2022-10-25T08:18:16.852Z,135.98
2022-10-25T08:23:13.207Z,133.77
2022-10-25T08:28:09.564Z,128.68
2022-10-25T08:33:11.215Z,126.30
2022-10-25T08:38:07.992Z,135.77
2022-10-25T08:43:13.278Z,136.15
2022-10-25T08:48:13.719Z,132.93
2022-10-25T08:53:16.797Z,125.78
2022-10-25T08:58:15.415Z,124.55
2022-10-25T09:03:15.413Z,133.32
2022-10-25T09:08:27.202Z,130.43
2022-10-25T09:13:42.117Z,114.90
2022-10-25T09:18:54.905Z,104.95
2022-10-25T09:23:59.347Z,93.20
2022-10-25T09:29:05.352Z,93.47
2022-10-25T09:34:04.398Z,94.30
2022-10-25T09:39:02.764Z,89.03
2022-10-25T09:44:22.012Z,81.72
2022-10-25T09:49:18.280Z,71.40
2022-10-25T09:54:32.674Z,62.47
2022-10-25T09:59:29.432Z,55.70
2022-10-25T10:04:34.090Z,56.15
2022-10-25T10:09:31.214Z,62.25
2022-10-25T10:14:36.663Z,49.17
2022-10-25T10:19:32.892Z,42.13
2022-10-25T10:24:30.375Z,38.15
2022-10-25T10:29:34.878Z,41.47
2022-10-25T10:34:32.307Z,41.58
2022-10-25T10:39:28.779Z,42.00
2022-10-25T10:44:25.005Z,35.90
2022-10-25T10:49:25.313Z,31.52
2022-10-25T10:54:21.561Z,29.23
2022-10-25T10:59:35.513Z,28.63
2022-10-25T11:04:45.932Z,21.23
2022-10-25T11:09:42.182Z,19.60
2022-10-25T11:14:38.533Z,16.80
2022-10-25T11:20:06.986Z,16.17
2022-10-25T11:25:21.535Z,16.45
2022-10-25T11:30:19.451Z,16.88
2022-10-25T11:35:34.244Z,13.18
2022-10-25T11:40:32.579Z,12.02
2022-10-25T11:45:32.618Z,11.88
2022-10-25T11:50:34.380Z,12.27
2022-10-25T11:55:35.010Z,12.43
2022-10-25T12:00:49.683Z,10.63
2022-10-25T12:05:45.831Z,10.50
2022-10-25T12:10:43.554Z,9.15
2022-10-25T12:15:41.543Z,9.60
2022-10-25T12:20:38.194Z,9.60
2022-10-25T12:25:39.443Z,9.32
2022-10-25T12:30:35.945Z,10.05
2022-10-25T12:35:36.330Z,10.05
2022-10-25T12:40:39.021Z,8.43
2022-10-25T12:45:40.464Z,10.45
2022-10-25T12:50:42.729Z,10.10
2022-10-25T12:55:57.114Z,9.55
2022-10-25T13:01:02.415Z,9.20
2022-10-25T13:06:13.163Z,9.02
2022-10-25T13:11:10.036Z,8.82
2022-10-25T13:16:08.573Z,9.00
2022-10-25T13:21:09.885Z,9.23
2022-10-25T13:26:08.053Z,8.45
2022-10-25T13:31:23.237Z,8.55
2022-10-25T13:36:39.412Z,8.90
2022-10-25T13:41:43.239Z,10.32
2022-10-25T13:46:40.608Z,9.23
2022-10-25T13:51:40.119Z,10.18
2022-10-25T13:56:36.850Z,10.38
2022-10-25T14:01:36.018Z,9.50
2022-10-25T14:06:32.417Z,10.38
2022-10-25T14:11:37.575Z,9.88
2022-10-25T14:16:52.432Z,9.65
2022-10-25T14:21:51.001Z,10.68
2022-10-25T14:26:56.256Z,11.48
2022-10-25T14:31:52.869Z,12.55
2022-10-25T14:36:50.653Z,13.73
2022-10-25T14:41:51.110Z,14.00
2022-10-25T14:46:47.310Z,15.25
2022-10-25T14:51:44.318Z,15.48
2022-10-25T14:56:42.171Z,14.77
2022-10-25T15:01:38.577Z,14.88
2022-10-25T15:06:34.907Z,15.48
2022-10-25T15:11:32.740Z,15.90
2022-10-25T15:16:40.710Z,16.05
2022-10-25T15:21:46.922Z,16.95
2022-10-25T15:26:55.477Z,18.95
2022-10-25T15:31:51.778Z,17.95
2022-10-25T15:36:48.355Z,20.80
2022-10-25T15:41:44.579Z,21.65
2022-10-25T15:46:41.390Z,22.95
2022-10-25T15:51:38.983Z,25.15
2022-10-25T15:56:35.183Z,28.75
2022-10-25T16:01:31.616Z,28.45
2022-10-25T16:06:27.857Z,32.42
2022-10-25T16:11:24.337Z,31.13
2022-10-25T16:16:38.958Z,28.52
2022-10-25T16:21:36.366Z,31.65
2022-10-25T16:26:41.550Z,32.50
2022-10-25T16:31:37.736Z,32.08
2022-10-25T16:36:34.002Z,33.38
2022-10-25T16:41:30.499Z,31.00
2022-10-25T16:46:26.803Z,33.17
2022-10-25T16:51:24.828Z,34.20
2022-10-25T16:56:21.065Z,33.35
2022-10-25T17:01:17.380Z,32.78
2022-10-25T17:06:39.632Z,29.88
2022-10-25T17:11:29.948Z,29.13
2022-10-25T17:16:26.228Z,29.63
2022-10-25T17:21:23.417Z,26.60
2022-10-25T17:26:19.684Z,25.92
2022-10-25T17:31:22.512Z,27.13
2022-10-25T17:36:19.055Z,27.67
2022-10-25T17:41:15.344Z,25.20
2022-10-25T17:46:19.310Z,26.52
2022-10-25T17:51:15.857Z,25.40
2022-10-25T17:56:16.265Z,28.08
2022-10-25T18:01:14.079Z,28.92
2022-10-25T18:06:12.332Z,30.35
2022-10-25T18:11:09.750Z,30.90
2022-10-25T18:21:08.806Z,31.17
2022-10-25T18:26:05.802Z,33.60
2022-10-25T18:31:03.763Z,35.13
2022-10-25T18:36:01.112Z,37.17
2022-10-25T18:40:57.345Z,36.42
2022-10-25T18:45:57.458Z,41.40
2022-10-25T18:50:53.806Z,44.10
2022-10-25T18:55:52.948Z,46.50
2022-10-25T19:00:49.196Z,47.65
2022-10-25T19:05:45.438Z,52.38
2022-10-25T19:10:52.352Z,54.17
2022-10-25T19:15:48.833Z,58.95
2022-10-25T19:20:46.449Z,57.40
2022-10-25T19:25:43.031Z,62.53
2022-10-25T19:30:40.090Z,70.60
2022-10-25T19:35:36.340Z,68.70
2022-10-25T19:40:32.663Z,74.40
2022-10-25T19:45:28.944Z,77.63
2022-10-25T19:50:25.292Z,79.55
2022-10-25T19:55:21.532Z,78.90
2022-10-25T20:00:17.926Z,87.93
2022-10-25T20:05:14.252Z,95.90
2022-10-25T20:10:10.636Z,95.90
2022-10-25T20:15:07.169Z,95.70
2022-10-25T20:20:03.639Z,98.85
2022-10-25T20:24:59.953Z,99.38
2022-10-25T20:29:56.192Z,110.90
2022-10-25T20:34:52.430Z,110.00
2022-10-25T20:39:48.771Z,108.95
2022-10-25T20:44:45.009Z,110.38
2022-10-25T20:49:41.188Z,106.88
2022-10-25T20:54:37.411Z,107.32
2022-10-25T20:59:33.730Z,112.05
2022-10-25T21:04:42.325Z,117.20
2022-10-25T21:09:49.361Z,118.47
2022-10-25T21:14:45.954Z,125.80
2022-10-25T21:19:42.266Z,127.93
2022-10-25T21:24:38.449Z,130.38
2022-10-25T21:29:34.643Z,140.27
2022-10-25T21:34:30.815Z,134.18
2022-10-25T21:39:27.046Z,142.95
2022-10-25T21:44:23.330Z,139.25
2022-10-25T21:49:19.552Z,143.27
2022-10-25T21:54:15.888Z,137.63
2022-10-25T21:59:12.072Z,130.20
2022-10-25T22:04:08.283Z,129.63
2022-10-25T22:09:05.016Z,132.75
2022-10-25T22:14:02.380Z,126.10
2022-10-25T22:19:00.118Z,131.18
2022-10-25T22:23:56.391Z,139.65
2022-10-25T22:28:53.548Z,135.23
2022-10-25T22:33:54.607Z,137.13
2022-10-25T22:38:50.822Z,139.93
2022-10-25T22:43:47.586Z,139.15
2022-10-25T22:48:44.368Z,137.32
2022-10-25T22:53:41.198Z,140.20
2022-10-25T22:58:38.221Z,140.77
2022-10-25T23:03:35.445Z,144.70
2022-10-25T23:08:31.834Z,143.80
2022-10-25T23:13:29.035Z,142.15
2022-10-25T23:18:25.350Z,141.38
2022-10-25T23:23:21.877Z,139.30
2022-10-25T23:28:18.088Z,140.40
2022-10-25T23:33:15.323Z,143.40
2022-10-25T23:38:12.445Z,143.40
2022-10-25T23:43:08.650Z,140.48
2022-10-25T23:48:04.861Z,143.45
2022-10-25T23:53:01.091Z,143.50
2022-10-25T23:57:57.864Z,140.13
